sensor_id;sensor_type;location;lat;lon;timestamp;P1;durP1;ratioP1;P2;durP2;ratioP2
75787;SDS011;64406;50.024;14.492;2024-03-25T00:01:00;3.03;;;1.85;;
75787;SDS011;64406;50.024;14.492;2024-03-25T00:03:37;2.47;;;1.80;;
75787;SDS011;64406;50.024;14.492;2024-03-25T00:06:04;5.28;;;2.58;;
75787;SDS011;64406;50.024;14.492;2024-03-25T00:08:30;3.00;;;2.10;;
75787;SDS011;64406;50.024;14.492;2024-03-25T00:10:55;3.30;;;2.08;;
75787;SDS011;64406;50.024;14.492;2024-03-25T00:13:21;3.80;;;1.98;;
75787;SDS011;64406;50.024;14.492;2024-03-25T00:15:46;2.80;;;1.80;;
75787;SDS011;64406;50.024;14.492;2024-03-25T00:18:12;4.00;;;2.42;;
75787;SDS011;64406;50.024;14.492;2024-03-25T00:20:38;3.13;;;1.73;;
75787;SDS011;64406;50.024;14.492;2024-03-25T00:23:04;3.35;;;2.00;;
75787;SDS011;64406;50.024;14.492;2024-03-25T00:25:30;3.05;;;1.88;;
75787;SDS011;64406;50.024;14.492;2024-03-25T00:27:56;2.70;;;1.65;;
75787;SDS011;64406;50.024;14.492;2024-03-25T00:30:22;2.70;;;2.22;;
75787;SDS011;64406;50.024;14.492;2024-03-25T00:32:49;2.90;;;2.10;;
75787;SDS011;64406;50.024;14.492;2024-03-25T00:35:15;3.22;;;2.10;;
75787;SDS011;64406;50.024;14.492;2024-03-25T00:37:41;5.07;;;2.50;;
75787;SDS011;64406;50.024;14.492;2024-03-25T00:40:07;5.63;;;2.25;;
75787;SDS011;64406;50.024;14.492;2024-03-25T00:42:33;3.88;;;2.67;;
75787;SDS011;64406;50.024;14.492;2024-03-25T00:44:58;3.05;;;2.30;;
75787;SDS011;64406;50.024;14.492;2024-03-25T00:47:25;3.63;;;2.08;;
75787;SDS011;64406;50.024;14.492;2024-03-25T00:49:51;3.00;;;2.30;;
75787;SDS011;64406;50.024;14.492;2024-03-25T00:52:17;6.63;;;3.28;;
75787;SDS011;64406;50.024;14.492;2024-03-25T00:54:42;5.43;;;2.47;;
75787;SDS011;64406;50.024;14.492;2024-03-25T00:57:08;3.33;;;2.17;;
75787;SDS011;64406;50.024;14.492;2024-03-25T00:59:33;3.75;;;2.22;;
75787;SDS011;64406;50.024;14.492;2024-03-25T01:01:59;4.72;;;2.65;;
75787;SDS011;64406;50.024;14.492;2024-03-25T01:04:24;4.35;;;2.28;;
75787;SDS011;64406;50.024;14.492;2024-03-25T01:06:50;3.38;;;2.08;;
75787;SDS011;64406;50.024;14.492;2024-03-25T01:09:16;3.92;;;2.50;;
75787;SDS011;64406;50.024;14.492;2024-03-25T01:11:41;3.85;;;2.45;;
75787;SDS011;64406;50.024;14.492;2024-03-25T01:14:07;4.28;;;2.47;;
75787;SDS011;64406;50.024;14.492;2024-03-25T01:16:33;3.22;;;2.53;;
75787;SDS011;64406;50.024;14.492;2024-03-25T01:18:58;3.20;;;2.45;;
75787;SDS011;64406;50.024;14.492;2024-03-25T01:21:24;6.30;;;2.67;;
75787;SDS011;64406;50.024;14.492;2024-03-25T01:23:50;4.43;;;3.00;;
75787;SDS011;64406;50.024;14.492;2024-03-25T01:26:16;4.25;;;2.55;;
75787;SDS011;64406;50.024;14.492;2024-03-25T01:28:42;3.08;;;2.13;;
75787;SDS011;64406;50.024;14.492;2024-03-25T01:31:08;4.20;;;2.25;;
75787;SDS011;64406;50.024;14.492;2024-03-25T01:33:34;4.68;;;2.47;;
75787;SDS011;64406;50.024;14.492;2024-03-25T01:36:00;2.70;;;2.08;;
75787;SDS011;64406;50.024;14.492;2024-03-25T01:38:26;4.78;;;2.28;;
75787;SDS011;64406;50.024;14.492;2024-03-25T01:40:52;4.32;;;2.30;;
75787;SDS011;64406;50.024;14.492;2024-03-25T01:43:17;3.90;;;2.10;;
75787;SDS011;64406;50.024;14.492;2024-03-25T01:45:43;3.40;;;2.22;;
75787;SDS011;64406;50.024;14.492;2024-03-25T01:48:09;2.47;;;2.05;;
75787;SDS011;64406;50.024;14.492;2024-03-25T01:50:38;4.00;;;2.28;;
75787;SDS011;64406;50.024;14.492;2024-03-25T01:53:07;5.03;;;2.33;;
75787;SDS011;64406;50.024;14.492;2024-03-25T01:55:34;6.47;;;2.70;;
75787;SDS011;64406;50.024;14.492;2024-03-25T01:58:00;5.85;;;2.67;;
75787;SDS011;64406;50.024;14.492;2024-03-25T02:00:26;4.13;;;1.95;;
75787;SDS011;64406;50.024;14.492;2024-03-25T02:02:52;3.22;;;2.20;;
75787;SDS011;64406;50.024;14.492;2024-03-25T02:05:20;4.57;;;2.13;;
75787;SDS011;64406;50.024;14.492;2024-03-25T02:07:45;3.25;;;2.03;;
75787;SDS011;64406;50.024;14.492;2024-03-25T02:10:12;6.00;;;2.47;;
75787;SDS011;64406;50.024;14.492;2024-03-25T02:12:43;4.38;;;1.95;;
75787;SDS011;64406;50.024;14.492;2024-03-25T02:15:11;5.57;;;2.72;;
75787;SDS011;64406;50.024;14.492;2024-03-25T02:17:38;4.95;;;2.72;;
75787;SDS011;64406;50.024;14.492;2024-03-25T02:20:04;4.15;;;2.35;;
75787;SDS011;64406;50.024;14.492;2024-03-25T02:22:32;2.33;;;1.80;;
75787;SDS011;64406;50.024;14.492;2024-03-25T02:24:58;5.47;;;2.35;;
75787;SDS011;64406;50.024;14.492;2024-03-25T02:27:26;5.50;;;2.33;;
75787;SDS011;64406;50.024;14.492;2024-03-25T02:29:54;4.15;;;2.60;;
75787;SDS011;64406;50.024;14.492;2024-03-25T02:32:20;6.55;;;1.77;;
75787;SDS011;64406;50.024;14.492;2024-03-25T02:34:50;3.67;;;2.10;;
75787;SDS011;64406;50.024;14.492;2024-03-25T02:37:17;4.25;;;2.00;;
75787;SDS011;64406;50.024;14.492;2024-03-25T02:39:44;6.55;;;2.42;;
75787;SDS011;64406;50.024;14.492;2024-03-25T02:42:10;3.10;;;1.98;;
75787;SDS011;64406;50.024;14.492;2024-03-25T02:44:36;4.47;;;1.80;;
75787;SDS011;64406;50.024;14.492;2024-03-25T02:47:01;3.85;;;2.20;;
75787;SDS011;64406;50.024;14.492;2024-03-25T02:49:29;3.22;;;1.90;;
75787;SDS011;64406;50.024;14.492;2024-03-25T02:51:54;2.58;;;1.90;;
75787;SDS011;64406;50.024;14.492;2024-03-25T02:54:20;2.95;;;1.75;;
75787;SDS011;64406;50.024;14.492;2024-03-25T02:56:47;3.60;;;1.83;;
75787;SDS011;64406;50.024;14.492;2024-03-25T02:59:13;3.58;;;1.60;;
75787;SDS011;64406;50.024;14.492;2024-03-25T03:01:38;4.43;;;1.65;;
75787;SDS011;64406;50.024;14.492;2024-03-25T03:04:04;3.15;;;1.95;;
75787;SDS011;64406;50.024;14.492;2024-03-25T03:06:29;3.17;;;1.63;;
75787;SDS011;64406;50.024;14.492;2024-03-25T03:08:55;3.08;;;1.50;;
75787;SDS011;64406;50.024;14.492;2024-03-25T03:11:20;2.38;;;1.98;;
75787;SDS011;64406;50.024;14.492;2024-03-25T03:13:46;2.97;;;1.27;;
75787;SDS011;64406;50.024;14.492;2024-03-25T03:16:11;4.95;;;1.73;;
75787;SDS011;64406;50.024;14.492;2024-03-25T03:18:37;2.78;;;1.58;;
75787;SDS011;64406;50.024;14.492;2024-03-25T03:21:03;1.73;;;1.40;;
75787;SDS011;64406;50.024;14.492;2024-03-25T03:23:28;3.00;;;1.63;;
75787;SDS011;64406;50.024;14.492;2024-03-25T03:25:54;2.13;;;1.58;;
75787;SDS011;64406;50.024;14.492;2024-03-25T03:28:20;2.55;;;1.88;;
75787;SDS011;64406;50.024;14.492;2024-03-25T03:30:46;2.88;;;1.75;;
75787;SDS011;64406;50.024;14.492;2024-03-25T03:33:12;2.47;;;1.88;;
75787;SDS011;64406;50.024;14.492;2024-03-25T03:35:38;3.25;;;1.95;;
75787;SDS011;64406;50.024;14.492;2024-03-25T03:38:04;2.30;;;1.67;;
75787;SDS011;64406;50.024;14.492;2024-03-25T03:40:29;6.50;;;2.58;;
75787;SDS011;64406;50.024;14.492;2024-03-25T03:42:58;3.42;;;1.85;;
75787;SDS011;64406;50.024;14.492;2024-03-25T03:45:24;2.05;;;1.55;;
75787;SDS011;64406;50.024;14.492;2024-03-25T03:47:50;3.10;;;2.00;;
75787;SDS011;64406;50.024;14.492;2024-03-25T03:50:16;2.58;;;1.70;;
75787;SDS011;64406;50.024;14.492;2024-03-25T03:52:42;2.75;;;1.55;;
75787;SDS011;64406;50.024;14.492;2024-03-25T03:55:07;3.85;;;1.65;;
75787;SDS011;64406;50.024;14.492;2024-03-25T03:57:33;2.90;;;1.67;;
75787;SDS011;64406;50.024;14.492;2024-03-25T03:59:59;2.85;;;1.52;;
75787;SDS011;64406;50.024;14.492;2024-03-25T04:02:26;2.85;;;1.75;;
75787;SDS011;64406;50.024;14.492;2024-03-25T04:04:53;3.60;;;1.77;;
75787;SDS011;64406;50.024;14.492;2024-03-25T04:07:19;1.95;;;1.60;;
75787;SDS011;64406;50.024;14.492;2024-03-25T04:09:44;1.63;;;1.50;;
75787;SDS011;64406;50.024;14.492;2024-03-25T04:12:10;4.38;;;1.80;;
75787;SDS011;64406;50.024;14.492;2024-03-25T04:14:36;4.60;;;2.03;;
75787;SDS011;64406;50.024;14.492;2024-03-25T04:17:01;2.38;;;1.55;;
75787;SDS011;64406;50.024;14.492;2024-03-25T04:19:28;3.00;;;1.98;;
75787;SDS011;64406;50.024;14.492;2024-03-25T04:21:54;5.43;;;2.50;;
75787;SDS011;64406;50.024;14.492;2024-03-25T04:24:19;2.17;;;1.20;;
75787;SDS011;64406;50.024;14.492;2024-03-25T04:26:45;5.45;;;2.13;;
75787;SDS011;64406;50.024;14.492;2024-03-25T04:29:11;4.95;;;1.45;;
75787;SDS011;64406;50.024;14.492;2024-03-25T04:31:37;2.03;;;1.70;;
75787;SDS011;64406;50.024;14.492;2024-03-25T04:34:05;3.25;;;1.67;;
75787;SDS011;64406;50.024;14.492;2024-03-25T04:36:31;3.13;;;1.80;;
75787;SDS011;64406;50.024;14.492;2024-03-25T04:38:56;2.60;;;1.55;;
75787;SDS011;64406;50.024;14.492;2024-03-25T04:41:22;2.72;;;1.55;;
75787;SDS011;64406;50.024;14.492;2024-03-25T04:43:48;2.50;;;1.40;;
75787;SDS011;64406;50.024;14.492;2024-03-25T04:46:14;2.10;;;1.48;;
75787;SDS011;64406;50.024;14.492;2024-03-25T04:48:39;2.20;;;1.40;;
75787;SDS011;64406;50.024;14.492;2024-03-25T04:51:05;2.47;;;1.50;;
75787;SDS011;64406;50.024;14.492;2024-03-25T04:53:31;2.45;;;1.42;;
75787;SDS011;64406;50.024;14.492;2024-03-25T04:55:57;0.95;;;0.90;;
75787;SDS011;64406;50.024;14.492;2024-03-25T04:58:23;2.83;;;1.20;;
75787;SDS011;64406;50.024;14.492;2024-03-25T05:00:48;2.40;;;1.25;;
75787;SDS011;64406;50.024;14.492;2024-03-25T05:03:14;1.83;;;1.33;;
75787;SDS011;64406;50.024;14.492;2024-03-25T05:05:40;2.25;;;0.98;;
75787;SDS011;64406;50.024;14.492;2024-03-25T05:08:06;1.40;;;0.88;;
75787;SDS011;64406;50.024;14.492;2024-03-25T05:10:32;4.70;;;1.75;;
75787;SDS011;64406;50.024;14.492;2024-03-25T05:12:57;2.25;;;1.02;;
75787;SDS011;64406;50.024;14.492;2024-03-25T05:15:23;2.33;;;0.95;;
75787;SDS011;64406;50.024;14.492;2024-03-25T05:17:49;1.50;;;0.98;;
75787;SDS011;64406;50.024;14.492;2024-03-25T05:20:14;1.33;;;0.82;;
75787;SDS011;64406;50.024;14.492;2024-03-25T05:22:40;1.23;;;1.13;;
75787;SDS011;64406;50.024;14.492;2024-03-25T05:25:06;0.98;;;0.88;;
75787;SDS011;64406;50.024;14.492;2024-03-25T05:27:31;2.13;;;1.10;;
75787;SDS011;64406;50.024;14.492;2024-03-25T05:29:57;2.10;;;1.10;;
75787;SDS011;64406;50.024;14.492;2024-03-25T05:32:22;1.52;;;1.05;;
75787;SDS011;64406;50.024;14.492;2024-03-25T05:34:48;1.08;;;0.98;;
75787;SDS011;64406;50.024;14.492;2024-03-25T05:37:14;1.30;;;1.20;;
75787;SDS011;64406;50.024;14.492;2024-03-25T05:39:40;1.10;;;0.93;;
75787;SDS011;64406;50.024;14.492;2024-03-25T05:42:05;2.28;;;1.05;;
75787;SDS011;64406;50.024;14.492;2024-03-25T05:44:32;2.42;;;1.58;;
75787;SDS011;64406;50.024;14.492;2024-03-25T05:46:57;2.28;;;1.40;;
75787;SDS011;64406;50.024;14.492;2024-03-25T05:49:23;1.50;;;1.30;;
75787;SDS011;64406;50.024;14.492;2024-03-25T05:51:48;2.97;;;1.30;;
75787;SDS011;64406;50.024;14.492;2024-03-25T05:54:14;2.42;;;1.42;;
75787;SDS011;64406;50.024;14.492;2024-03-25T05:56:40;2.72;;;1.42;;
75787;SDS011;64406;50.024;14.492;2024-03-25T05:59:05;2.03;;;1.38;;
75787;SDS011;64406;50.024;14.492;2024-03-25T06:01:31;2.75;;;1.63;;
75787;SDS011;64406;50.024;14.492;2024-03-25T06:03:57;1.98;;;1.50;;
75787;SDS011;64406;50.024;14.492;2024-03-25T06:06:22;2.08;;;1.75;;
75787;SDS011;64406;50.024;14.492;2024-03-25T06:08:48;3.75;;;1.65;;
75787;SDS011;64406;50.024;14.492;2024-03-25T06:11:15;5.38;;;1.65;;
75787;SDS011;64406;50.024;14.492;2024-03-25T06:13:45;3.63;;;1.52;;
75787;SDS011;64406;50.024;14.492;2024-03-25T06:16:12;1.50;;;1.30;;
75787;SDS011;64406;50.024;14.492;2024-03-25T06:18:39;4.55;;;1.90;;
75787;SDS011;64406;50.024;14.492;2024-03-25T06:21:05;2.30;;;1.73;;
75787;SDS011;64406;50.024;14.492;2024-03-25T06:23:31;3.38;;;1.70;;
75787;SDS011;64406;50.024;14.492;2024-03-25T06:25:57;2.17;;;1.50;;
75787;SDS011;64406;50.024;14.492;2024-03-25T06:28:23;2.15;;;1.40;;
75787;SDS011;64406;50.024;14.492;2024-03-25T06:30:49;2.00;;;1.23;;
75787;SDS011;64406;50.024;14.492;2024-03-25T06:33:34;2.22;;;1.83;;
75787;SDS011;64406;50.024;14.492;2024-03-25T06:36:19;2.20;;;1.70;;
75787;SDS011;64406;50.024;14.492;2024-03-25T06:38:46;2.33;;;1.45;;
75787;SDS011;64406;50.024;14.492;2024-03-25T06:41:11;2.78;;;1.65;;
75787;SDS011;64406;50.024;14.492;2024-03-25T06:43:38;2.20;;;1.50;;
75787;SDS011;64406;50.024;14.492;2024-03-25T06:46:04;3.10;;;1.48;;
75787;SDS011;64406;50.024;14.492;2024-03-25T06:48:30;2.28;;;1.33;;
75787;SDS011;64406;50.024;14.492;2024-03-25T06:50:57;2.47;;;1.35;;
75787;SDS011;64406;50.024;14.492;2024-03-25T06:53:24;5.38;;;1.50;;
75787;SDS011;64406;50.024;14.492;2024-03-25T06:55:54;1.92;;;1.08;;
75787;SDS011;64406;50.024;14.492;2024-03-25T06:58:22;2.00;;;1.35;;
75787;SDS011;64406;50.024;14.492;2024-03-25T07:00:49;1.65;;;1.35;;
75787;SDS011;64406;50.024;14.492;2024-03-25T07:03:18;4.22;;;1.70;;
75787;SDS011;64406;50.024;14.492;2024-03-25T07:05:45;3.22;;;1.50;;
75787;SDS011;64406;50.024;14.492;2024-03-25T07:08:15;4.45;;;1.42;;
75787;SDS011;64406;50.024;14.492;2024-03-25T07:10:44;1.67;;;1.25;;
75787;SDS011;64406;50.024;14.492;2024-03-25T07:13:11;2.25;;;1.65;;
75787;SDS011;64406;50.024;14.492;2024-03-25T07:15:37;1.63;;;1.27;;
75787;SDS011;64406;50.024;14.492;2024-03-25T07:18:04;1.83;;;1.20;;
75787;SDS011;64406;50.024;14.492;2024-03-25T07:20:30;3.70;;;1.40;;
75787;SDS011;64406;50.024;14.492;2024-03-25T07:22:56;1.63;;;1.20;;
75787;SDS011;64406;50.024;14.492;2024-03-25T07:25:22;1.75;;;1.05;;
75787;SDS011;64406;50.024;14.492;2024-03-25T07:27:49;1.23;;;0.98;;
75787;SDS011;64406;50.024;14.492;2024-03-25T07:30:14;3.13;;;1.00;;
75787;SDS011;64406;50.024;14.492;2024-03-25T07:32:40;2.63;;;1.30;;
75787;SDS011;64406;50.024;14.492;2024-03-25T07:35:06;2.42;;;1.10;;
75787;SDS011;64406;50.024;14.492;2024-03-25T07:37:35;6.05;;;1.70;;
75787;SDS011;64406;50.024;14.492;2024-03-25T07:40:00;2.53;;;1.20;;
75787;SDS011;64406;50.024;14.492;2024-03-25T07:42:26;2.08;;;1.45;;
75787;SDS011;64406;50.024;14.492;2024-03-25T07:44:52;2.03;;;1.15;;
75787;SDS011;64406;50.024;14.492;2024-03-25T07:47:18;2.08;;;1.38;;
75787;SDS011;64406;50.024;14.492;2024-03-25T07:49:45;1.58;;;1.30;;
75787;SDS011;64406;50.024;14.492;2024-03-25T07:52:16;1.75;;;1.40;;
75787;SDS011;64406;50.024;14.492;2024-03-25T07:54:42;3.63;;;2.13;;
75787;SDS011;64406;50.024;14.492;2024-03-25T07:57:08;3.17;;;1.10;;
75787;SDS011;64406;50.024;14.492;2024-03-25T07:59:35;5.43;;;1.27;;
75787;SDS011;64406;50.024;14.492;2024-03-25T08:02:01;2.72;;;1.60;;
75787;SDS011;64406;50.024;14.492;2024-03-25T08:04:26;2.97;;;1.65;;
75787;SDS011;64406;50.024;14.492;2024-03-25T08:06:52;2.63;;;1.77;;
75787;SDS011;64406;50.024;14.492;2024-03-25T08:09:18;4.35;;;1.50;;
75787;SDS011;64406;50.024;14.492;2024-03-25T08:11:43;3.92;;;1.55;;
75787;SDS011;64406;50.024;14.492;2024-03-25T08:14:09;2.50;;;1.48;;
75787;SDS011;64406;50.024;14.492;2024-03-25T08:16:35;2.58;;;1.42;;
75787;SDS011;64406;50.024;14.492;2024-03-25T08:19:01;2.50;;;1.20;;
75787;SDS011;64406;50.024;14.492;2024-03-25T08:21:27;3.95;;;1.48;;
75787;SDS011;64406;50.024;14.492;2024-03-25T08:23:53;2.28;;;1.52;;
75787;SDS011;64406;50.024;14.492;2024-03-25T08:26:19;2.15;;;1.40;;
75787;SDS011;64406;50.024;14.492;2024-03-25T08:28:45;1.38;;;1.17;;
75787;SDS011;64406;50.024;14.492;2024-03-25T08:31:11;1.85;;;1.17;;
75787;SDS011;64406;50.024;14.492;2024-03-25T08:33:37;2.38;;;1.35;;
75787;SDS011;64406;50.024;14.492;2024-03-25T08:36:02;1.52;;;1.05;;
75787;SDS011;64406;50.024;14.492;2024-03-25T08:38:28;2.38;;;1.40;;
75787;SDS011;64406;50.024;14.492;2024-03-25T08:40:54;2.75;;;1.20;;
75787;SDS011;64406;50.024;14.492;2024-03-25T08:43:20;1.70;;;1.17;;
75787;SDS011;64406;50.024;14.492;2024-03-25T08:45:48;2.15;;;1.02;;
75787;SDS011;64406;50.024;14.492;2024-03-25T08:48:14;1.05;;;0.80;;
75787;SDS011;64406;50.024;14.492;2024-03-25T08:50:40;1.50;;;1.10;;
75787;SDS011;64406;50.024;14.492;2024-03-25T08:53:05;1.90;;;1.25;;
75787;SDS011;64406;50.024;14.492;2024-03-25T08:55:31;1.98;;;1.00;;
75787;SDS011;64406;50.024;14.492;2024-03-25T08:57:57;3.58;;;1.10;;
75787;SDS011;64406;50.024;14.492;2024-03-25T09:00:26;2.53;;;1.38;;
75787;SDS011;64406;50.024;14.492;2024-03-25T09:02:53;1.27;;;0.80;;
75787;SDS011;64406;50.024;14.492;2024-03-25T09:05:19;1.30;;;1.13;;
75787;SDS011;64406;50.024;14.492;2024-03-25T09:07:51;2.20;;;1.23;;
75787;SDS011;64406;50.024;14.492;2024-03-25T09:10:18;1.73;;;0.98;;
75787;SDS011;64406;50.024;14.492;2024-03-25T09:13:03;0.85;;;0.80;;
75787;SDS011;64406;50.024;14.492;2024-03-25T09:15:29;1.25;;;1.15;;
75787;SDS011;64406;50.024;14.492;2024-03-25T09:17:54;1.08;;;0.80;;
75787;SDS011;64406;50.024;14.492;2024-03-25T09:20:20;1.70;;;1.00;;
75787;SDS011;64406;50.024;14.492;2024-03-25T09:22:47;1.35;;;1.00;;
75787;SDS011;64406;50.024;14.492;2024-03-25T09:25:16;2.55;;;1.10;;
75787;SDS011;64406;50.024;14.492;2024-03-25T09:27:48;1.20;;;0.90;;
75787;SDS011;64406;50.024;14.492;2024-03-25T09:30:15;2.10;;;0.70;;
75787;SDS011;64406;50.024;14.492;2024-03-25T09:32:43;1.55;;;0.70;;
75787;SDS011;64406;50.024;14.492;2024-03-25T09:35:09;2.10;;;1.10;;
75787;SDS011;64406;50.024;14.492;2024-03-25T09:37:36;4.18;;;1.63;;
75787;SDS011;64406;50.024;14.492;2024-03-25T09:40:02;2.13;;;1.40;;
75787;SDS011;64406;50.024;14.492;2024-03-25T09:45:12;1.98;;;1.63;;
75787;SDS011;64406;50.024;14.492;2024-03-25T09:47:45;1.95;;;1.42;;
75787;SDS011;64406;50.024;14.492;2024-03-25T09:50:13;4.03;;;1.92;;
75787;SDS011;64406;50.024;14.492;2024-03-25T09:52:44;6.72;;;2.17;;
75787;SDS011;64406;50.024;14.492;2024-03-25T09:55:10;1.75;;;1.58;;
75787;SDS011;64406;50.024;14.492;2024-03-25T09:57:36;3.53;;;1.40;;
75787;SDS011;64406;50.024;14.492;2024-03-25T10:00:06;3.70;;;1.77;;
75787;SDS011;64406;50.024;14.492;2024-03-25T10:02:38;6.65;;;1.52;;
75787;SDS011;64406;50.024;14.492;2024-03-25T10:05:05;3.30;;;1.75;;
75787;SDS011;64406;50.024;14.492;2024-03-25T10:07:32;2.20;;;1.40;;
75787;SDS011;64406;50.024;14.492;2024-03-25T10:09:58;4.15;;;1.52;;
75787;SDS011;64406;50.024;14.492;2024-03-25T10:12:25;3.15;;;1.48;;
75787;SDS011;64406;50.024;14.492;2024-03-25T10:14:51;1.63;;;1.35;;
75787;SDS011;64406;50.024;14.492;2024-03-25T10:17:16;3.10;;;1.77;;
75787;SDS011;64406;50.024;14.492;2024-03-25T10:19:42;4.00;;;1.98;;
75787;SDS011;64406;50.024;14.492;2024-03-25T10:22:08;4.53;;;1.50;;
75787;SDS011;64406;50.024;14.492;2024-03-25T10:27:09;2.00;;;1.35;;
75787;SDS011;64406;50.024;14.492;2024-03-25T10:29:37;3.60;;;1.83;;
75787;SDS011;64406;50.024;14.492;2024-03-25T10:32:03;7.88;;;1.50;;
75787;SDS011;64406;50.024;14.492;2024-03-25T10:34:30;2.75;;;1.23;;
75787;SDS011;64406;50.024;14.492;2024-03-25T10:36:56;1.98;;;1.50;;
75787;SDS011;64406;50.024;14.492;2024-03-25T10:39:27;3.80;;;1.75;;
75787;SDS011;64406;50.024;14.492;2024-03-25T10:41:55;2.28;;;1.48;;
75787;SDS011;64406;50.024;14.492;2024-03-25T10:44:23;2.00;;;1.45;;
75787;SDS011;64406;50.024;14.492;2024-03-25T10:47:07;2.15;;;1.30;;
75787;SDS011;64406;50.024;14.492;2024-03-25T10:49:49;2.15;;;1.45;;
75787;SDS011;64406;50.024;14.492;2024-03-25T10:52:21;2.58;;;1.20;;
75787;SDS011;64406;50.024;14.492;2024-03-25T10:54:49;2.45;;;1.33;;
75787;SDS011;64406;50.024;14.492;2024-03-25T10:57:15;2.65;;;1.10;;
75787;SDS011;64406;50.024;14.492;2024-03-25T10:59:42;3.17;;;1.70;;
75787;SDS011;64406;50.024;14.492;2024-03-25T11:02:08;2.17;;;1.50;;
75787;SDS011;64406;50.024;14.492;2024-03-25T11:04:35;3.38;;;1.50;;
75787;SDS011;64406;50.024;14.492;2024-03-25T11:07:15;3.50;;;1.33;;
75787;SDS011;64406;50.024;14.492;2024-03-25T11:09:42;2.40;;;1.02;;
75787;SDS011;64406;50.024;14.492;2024-03-25T11:12:11;1.33;;;1.00;;
75787;SDS011;64406;50.024;14.492;2024-03-25T11:14:38;1.20;;;1.10;;
75787;SDS011;64406;50.024;14.492;2024-03-25T11:17:14;2.38;;;1.00;;
75787;SDS011;64406;50.024;14.492;2024-03-25T11:19:43;1.30;;;1.00;;
75787;SDS011;64406;50.024;14.492;2024-03-25T11:22:10;1.33;;;1.23;;
75787;SDS011;64406;50.024;14.492;2024-03-25T11:24:36;2.45;;;1.02;;
75787;SDS011;64406;50.024;14.492;2024-03-25T11:27:05;0.98;;;0.68;;
75787;SDS011;64406;50.024;14.492;2024-03-25T11:29:31;2.95;;;1.00;;
75787;SDS011;64406;50.024;14.492;2024-03-25T11:31:58;1.25;;;1.00;;
75787;SDS011;64406;50.024;14.492;2024-03-25T11:34:29;1.55;;;1.20;;
75787;SDS011;64406;50.024;14.492;2024-03-25T11:36:57;1.33;;;0.80;;
75787;SDS011;64406;50.024;14.492;2024-03-25T11:39:24;1.83;;;1.10;;
75787;SDS011;64406;50.024;14.492;2024-03-25T11:41:53;1.70;;;1.02;;
75787;SDS011;64406;50.024;14.492;2024-03-25T11:44:19;2.78;;;1.10;;
75787;SDS011;64406;50.024;14.492;2024-03-25T11:46:47;1.67;;;1.10;;
75787;SDS011;64406;50.024;14.492;2024-03-25T11:49:15;2.03;;;0.85;;
75787;SDS011;64406;50.024;14.492;2024-03-25T11:51:44;2.60;;;1.05;;
75787;SDS011;64406;50.024;14.492;2024-03-25T11:54:12;2.03;;;1.00;;
75787;SDS011;64406;50.024;14.492;2024-03-25T11:56:38;1.05;;;0.95;;
75787;SDS011;64406;50.024;14.492;2024-03-25T11:59:04;1.35;;;1.10;;
75787;SDS011;64406;50.024;14.492;2024-03-25T12:01:30;1.05;;;0.95;;
75787;SDS011;64406;50.024;14.492;2024-03-25T12:03:56;3.20;;;1.25;;
75787;SDS011;64406;50.024;14.492;2024-03-25T12:06:22;1.67;;;1.17;;
75787;SDS011;64406;50.024;14.492;2024-03-25T12:08:48;1.55;;;0.90;;
75787;SDS011;64406;50.024;14.492;2024-03-25T12:11:32;2.13;;;1.42;;
75787;SDS011;64406;50.024;14.492;2024-03-25T12:13:59;2.28;;;1.08;;
75787;SDS011;64406;50.024;14.492;2024-03-25T12:16:25;1.10;;;0.95;;
75787;SDS011;64406;50.024;14.492;2024-03-25T12:18:51;1.15;;;0.90;;
75787;SDS011;64406;50.024;14.492;2024-03-25T12:21:18;6.68;;;0.90;;
75787;SDS011;64406;50.024;14.492;2024-03-25T12:23:45;3.35;;;1.20;;
75787;SDS011;64406;50.024;14.492;2024-03-25T12:26:12;2.17;;;1.15;;
75787;SDS011;64406;50.024;14.492;2024-03-25T12:28:39;1.95;;;1.05;;
75787;SDS011;64406;50.024;14.492;2024-03-25T12:31:08;0.88;;;0.80;;
75787;SDS011;64406;50.024;14.492;2024-03-25T12:33:41;1.52;;;0.90;;
75787;SDS011;64406;50.024;14.492;2024-03-25T12:36:06;3.00;;;0.98;;
75787;SDS011;64406;50.024;14.492;2024-03-25T12:38:33;1.08;;;0.98;;
75787;SDS011;64406;50.024;14.492;2024-03-25T12:41:09;1.55;;;0.80;;
75787;SDS011;64406;50.024;14.492;2024-03-25T12:43:42;1.15;;;0.88;;
75787;SDS011;64406;50.024;14.492;2024-03-25T12:46:09;1.35;;;1.00;;
75787;SDS011;64406;50.024;14.492;2024-03-25T12:48:38;0.98;;;0.80;;
75787;SDS011;64406;50.024;14.492;2024-03-25T12:51:03;1.13;;;0.95;;
75787;SDS011;64406;50.024;14.492;2024-03-25T12:53:30;0.95;;;0.70;;
75787;SDS011;64406;50.024;14.492;2024-03-25T12:55:56;2.35;;;1.20;;
75787;SDS011;64406;50.024;14.492;2024-03-25T12:58:22;1.92;;;1.20;;
75787;SDS011;64406;50.024;14.492;2024-03-25T13:00:48;1.80;;;0.93;;
75787;SDS011;64406;50.024;14.492;2024-03-25T13:03:14;1.40;;;1.10;;
75787;SDS011;64406;50.024;14.492;2024-03-25T13:05:40;0.80;;;0.80;;
75787;SDS011;64406;50.024;14.492;2024-03-25T13:08:09;3.08;;;0.90;;
75787;SDS011;64406;50.024;14.492;2024-03-25T13:10:35;3.15;;;0.68;;
75787;SDS011;64406;50.024;14.492;2024-03-25T13:13:01;2.20;;;1.00;;
75787;SDS011;64406;50.024;14.492;2024-03-25T13:15:27;0.90;;;0.80;;
75787;SDS011;64406;50.024;14.492;2024-03-25T13:17:53;0.80;;;0.80;;
75787;SDS011;64406;50.024;14.492;2024-03-25T13:20:19;0.98;;;0.77;;
75787;SDS011;64406;50.024;14.492;2024-03-25T13:22:45;1.30;;;0.88;;
75787;SDS011;64406;50.024;14.492;2024-03-25T13:25:12;1.10;;;1.00;;
75787;SDS011;64406;50.024;14.492;2024-03-25T13:27:38;2.78;;;1.15;;
75787;SDS011;64406;50.024;14.492;2024-03-25T13:30:04;1.15;;;0.90;;
75787;SDS011;64406;50.024;14.492;2024-03-25T13:32:31;1.63;;;0.80;;
75787;SDS011;64406;50.024;14.492;2024-03-25T13:34:57;2.10;;;1.05;;
75787;SDS011;64406;50.024;14.492;2024-03-25T13:37:22;1.25;;;1.00;;
75787;SDS011;64406;50.024;14.492;2024-03-25T13:39:49;1.42;;;0.90;;
75787;SDS011;64406;50.024;14.492;2024-03-25T13:42:20;1.58;;;1.17;;
75787;SDS011;64406;50.024;14.492;2024-03-25T13:44:45;3.33;;;1.20;;
75787;SDS011;64406;50.024;14.492;2024-03-25T13:47:11;1.45;;;0.90;;
75787;SDS011;64406;50.024;14.492;2024-03-25T13:49:36;1.42;;;0.80;;
75787;SDS011;64406;50.024;14.492;2024-03-25T13:52:03;1.40;;;0.90;;
75787;SDS011;64406;50.024;14.492;2024-03-25T13:54:29;0.82;;;0.82;;
75787;SDS011;64406;50.024;14.492;2024-03-25T13:56:58;1.30;;;0.80;;
75787;SDS011;64406;50.024;14.492;2024-03-25T13:59:24;2.17;;;1.10;;
75787;SDS011;64406;50.024;14.492;2024-03-25T14:01:53;1.45;;;0.90;;
75787;SDS011;64406;50.024;14.492;2024-03-25T14:04:19;1.42;;;1.10;;
75787;SDS011;64406;50.024;14.492;2024-03-25T14:06:45;1.80;;;1.27;;
75787;SDS011;64406;50.024;14.492;2024-03-25T14:09:22;2.15;;;1.17;;
75787;SDS011;64406;50.024;14.492;2024-03-25T14:11:49;2.97;;;1.50;;
75787;SDS011;64406;50.024;14.492;2024-03-25T14:14:15;4.70;;;1.30;;
75787;SDS011;64406;50.024;14.492;2024-03-25T14:16:41;1.42;;;1.30;;
75787;SDS011;64406;50.024;14.492;2024-03-25T14:19:06;2.35;;;1.42;;
75787;SDS011;64406;50.024;14.492;2024-03-25T14:21:33;1.00;;;0.85;;
75787;SDS011;64406;50.024;14.492;2024-03-25T14:23:58;1.20;;;1.00;;
75787;SDS011;64406;50.024;14.492;2024-03-25T14:26:24;3.42;;;1.20;;
75787;SDS011;64406;50.024;14.492;2024-03-25T14:28:50;3.42;;;1.38;;
75787;SDS011;64406;50.024;14.492;2024-03-25T14:31:15;1.13;;;1.00;;
75787;SDS011;64406;50.024;14.492;2024-03-25T14:33:41;1.30;;;0.90;;
75787;SDS011;64406;50.024;14.492;2024-03-25T14:36:07;1.05;;;0.80;;